Time;durP1;ratioP1;P1;durP2;ratioP2;P2;SDS_P1;SDS_P2;PMS_P1;PMS_P2;Temp;Humidity;BMP_temperature;BMP_pressure;BME280_temperature;BME280_humidity;BME280_pressure;Samples;Min_cycle;Max_cycle;Signal;HPM_P1;HPM_P2
2020/12/24 00:00:44;;;;;;;12.95;5.60;;;;;;;4.71;91.13;97916.14;1728080;82;21150;-67
2020/12/24 00:03:12;;;;;;;10.38;6.28;;;;;;;4.71;90.85;97923.86;1692378;84;21541;-66
2020/12/24 00:05:40;;;;;;;10.48;6.10;;;;;;;4.72;90.70;97916.97;1727921;82;21154;-66
2020/12/24 00:08:08;;;;;;;11.60;6.08;;;;;;;4.70;90.95;97909.84;1692040;84;21301;-66
2020/12/24 00:10:36;;;;;;;10.35;5.78;;;;;;;4.66;91.29;97908.41;1728083;82;21556;-65
2020/12/24 00:13:10;;;;;;;11.55;5.45;;;;;;;4.62;91.74;97914.69;1680773;79;21174;-65
2020/12/24 00:15:38;;;;;;;8.03;5.17;;;;;;;4.62;91.38;97912.95;1688980;84;21547;-68
2020/12/24 00:18:07;;;;;;;10.98;5.87;;;;;;;4.62;91.27;97906.52;1709706;83;21132;-66
2020/12/24 00:20:35;;;;;;;8.78;5.03;;;;;;;4.61;91.13;97907.90;1688756;84;21180;-65
2020/12/24 00:23:04;;;;;;;8.43;4.87;;;;;;;4.63;91.21;97908.62;1711423;83;21155;-65
2020/12/24 00:25:32;;;;;;;7.67;4.80;;;;;;;4.57;91.52;97907.75;1688657;85;21622;-65
2020/12/24 00:28:00;;;;;;;10.95;6.22;;;;;;;4.54;91.41;97912.66;1686618;84;21164;-65
2020/12/24 00:30:28;;;;;;;12.18;6.10;;;;;;;4.56;91.21;97908.67;1688896;85;21243;-66
2020/12/24 00:32:56;;;;;;;13.00;4.28;;;;;;;4.58;91.21;97905.55;1711457;84;21199;-66
2020/12/24 00:35:24;;;;;;;6.25;4.95;;;;;;;4.57;91.31;97905.18;1688682;84;21629;-65
2020/12/24 00:37:52;;;;;;;9.40;4.62;;;;;;;4.55;91.29;97906.56;1711514;83;21155;-65
2020/12/24 00:40:20;;;;;;;11.40;5.30;;;;;;;4.56;91.25;97903.07;1688861;84;21149;-65
2020/12/24 00:42:48;;;;;;;8.50;4.72;;;;;;;4.52;91.79;97896.50;1711700;83;21208;-66
2020/12/24 00:45:16;;;;;;;11.05;6.05;;;;;;;4.50;91.78;97900.11;1688780;84;21576;-66
2020/12/24 00:47:45;;;;;;;5.42;3.60;;;;;;;4.52;91.60;97899.53;1711663;83;21149;-66
2020/12/24 00:50:14;;;;;;;8.98;4.85;;;;;;;4.56;91.45;97890.67;1688700;84;21222;-65
2020/12/24 00:52:42;;;;;;;6.65;4.45;;;;;;;4.49;92.46;97889.46;1711673;83;21164;-65
2020/12/24 00:55:10;;;;;;;8.60;5.47;;;;;;;4.55;91.90;97889.84;1688746;84;21144;-65
2020/12/24 00:57:39;;;;;;;11.38;5.22;;;;;;;4.61;91.99;97886.03;1711510;82;21196;-65
2020/12/24 01:00:08;;;;;;;9.38;5.20;;;;;;;4.63;91.85;97882.42;1688680;84;21137;-65
2020/12/24 01:02:36;;;;;;;10.23;4.92;;;;;;;4.66;91.69;97883.52;1711513;84;21156;-65
2020/12/24 01:05:26;;;;;;;11.88;4.37;;;;;;;4.67;91.64;97876.13;1688708;84;21185;-65
2020/12/24 01:07:53;;;;;;;6.22;4.50;;;;;;;4.76;91.69;97873.38;1683048;85;21124;-66
2020/12/24 01:10:21;;;;;;;8.60;5.37;;;;;;;4.82;91.43;97873.42;1683066;84;21565;-66
2020/12/24 01:12:50;;;;;;;8.60;5.20;;;;;;;4.84;91.17;97868.52;1683113;85;21608;-66
2020/12/24 01:15:18;;;;;;;6.22;3.85;;;;;;;4.90;91.18;97868.55;1683133;84;21545;-66
2020/12/24 01:17:45;;;;;;;8.28;4.85;;;;;;;4.92;90.63;97863.64;1672780;85;21142;-64
2020/12/24 01:20:13;;;;;;;5.67;3.87;;;;;;;4.91;90.37;97858.13;1672602;86;21169;-65
2020/12/24 01:22:41;;;;;;;6.12;3.80;;;;;;;4.94;90.38;97861.77;1672602;85;21180;-65
2020/12/24 01:25:09;;;;;;;4.42;2.75;;;;;;;4.91;90.31;97855.56;1672710;85;21172;-64
2020/12/24 01:27:37;;;;;;;6.00;3.87;;;;;;;4.93;90.38;97846.45;1672421;86;21193;-64
2020/12/24 01:30:05;;;;;;;4.67;3.30;;;;;;;4.94;90.45;97843.75;1672992;85;21147;-65
2020/12/24 01:32:34;;;;;;;4.15;3.35;;;;;;;4.97;90.38;97837.13;1674560;85;21169;-64
2020/12/24 01:35:02;;;;;;;6.97;4.60;;;;;;;5.00;90.25;97838.17;1675130;85;21184;-67
2020/12/24 01:37:30;;;;;;;8.38;4.90;;;;;;;5.01;90.17;97825.67;1674380;85;21165;-67
2020/12/24 01:39:58;;;;;;;5.83;4.00;;;;;;;4.77;90.97;97819.26;1658103;86;21165;-66
2020/12/24 01:42:27;;;;;;;7.42;4.53;;;;;;;4.87;90.78;97814.25;1674236;86;21221;-64
2020/12/24 01:44:54;;;;;;;6.30;4.00;;;;;;;4.96;90.66;97814.06;1673002;85;21202;-66
2020/12/24 01:47:22;;;;;;;4.90;4.03;;;;;;;5.00;90.55;97813.73;1673122;85;21176;-66
2020/12/24 01:49:50;;;;;;;5.40;3.80;;;;;;;5.08;90.61;97811.88;1672870;85;21196;-66
2020/12/24 01:52:39;;;;;;;8.58;4.70;;;;;;;5.12;90.02;97803.83;1672914;86;21158;-66
2020/12/24 01:55:11;;;;;;;7.55;4.78;;;;;;;5.10;89.83;97808.25;1672922;85;21204;-66
2020/12/24 01:57:39;;;;;;;6.45;4.20;;;;;;;5.16;90.04;97800.56;1673086;85;21184;-66
2020/12/24 02:00:09;;;;;;;4.33;3.60;;;;;;;5.17;89.40;97794.02;1672979;85;21149;-65
2020/12/24 02:02:40;;;;;;;4.70;4.12;;;;;;;5.15;89.30;97784.29;1673069;86;21180;-64
2020/12/24 02:05:08;;;;;;;7.95;5.00;;;;;;;5.15;89.35;97775.74;1673090;85;21172;-65
2020/12/24 02:07:37;;;;;;;9.15;5.60;;;;;;;5.14;89.24;97767.66;1672990;85;21181;-66
2020/12/24 02:10:05;;;;;;;8.25;4.75;;;;;;;5.05;89.81;97744.73;1673166;85;21172;-64
2020/12/24 02:12:34;;;;;;;9.98;5.22;;;;;;;4.99;90.07;97757.22;1672833;85;21180;-66
2020/12/24 02:15:03;;;;;;;8.03;4.53;;;;;;;4.96;90.34;97747.16;1673074;85;21141;-64
2020/12/24 02:17:32;;;;;;;10.98;5.67;;;;;;;5.04;89.98;97758.53;1672761;86;21133;-64
2020/12/24 02:20:00;;;;;;;7.15;4.80;;;;;;;5.04;89.98;97758.53;1672867;85;21145;-66
2020/12/24 02:22:29;;;;;;;10.45;5.55;;;;;;;5.07;90.01;97764.73;1673102;85;21162;-64
2020/12/24 02:24:57;;;;;;;10.05;5.53;;;;;;;5.05;89.82;97762.75;1673014;85;21586;-64
2020/12/24 02:27:25;;;;;;;8.80;5.42;;;;;;;5.03;89.82;97760.74;1673110;85;21172;-64
2020/12/24 02:29:53;;;;;;;10.58;5.37;;;;;;;4.99;89.74;97752.89;1672969;85;21208;-64
2020/12/24 02:32:22;;;;;;;11.78;6.35;;;;;;;4.95;89.86;97746.80;1673123;85;21171;-64
2020/12/24 02:34:49;;;;;;;12.80;6.80;;;;;;;4.91;89.91;97741.05;1672971;85;21236;-64
2020/12/24 02:37:17;;;;;;;7.90;5.25;;;;;;;4.73;91.26;97730.84;1673143;85;21168;-64
2020/12/24 02:39:48;;;;;;;12.03;6.30;;;;;;;4.63;91.87;97731.16;1672892;85;21138;-64
2020/12/24 02:42:16;;;;;;;10.10;6.08;;;;;;;4.51;92.71;97730.30;1672855;85;21208;-64
2020/12/24 02:44:44;;;;;;;8.18;5.10;;;;;;;4.45;93.37;97731.19;1673128;85;21173;-65
2020/12/24 02:47:12;;;;;;;8.95;4.85;;;;;;;4.47;93.12;97732.73;1672942;85;21176;-64
2020/12/24 02:49:42;;;;;;;9.20;5.20;;;;;;;4.43;93.75;97716.35;1671306;85;21352;-64
2020/12/24 02:52:09;;;;;;;10.15;5.28;;;;;;;4.42;93.98;97718.56;1673037;85;21189;-64
2020/12/24 02:54:37;;;;;;;7.47;5.05;;;;;;;4.41;94.14;97707.91;1673120;85;21197;-65
2020/12/24 02:57:05;;;;;;;8.83;4.72;;;;;;;4.43;94.09;97711.21;1673208;86;21178;-64
2020/12/24 02:59:35;;;;;;;10.43;5.85;;;;;;;4.46;93.64;97713.09;1672874;85;21169;-65
2020/12/24 03:02:03;;;;;;;9.43;5.67;;;;;;;4.42;94.14;97717.27;1672979;85;21641;-64
2020/12/24 03:04:33;;;;;;;11.15;7.20;;;;;;;4.43;94.07;97716.35;1673081;85;21188;-65
2020/12/24 03:07:01;;;;;;;9.93;6.65;;;;;;;4.39;94.40;97704.64;1672828;85;21199;-65
2020/12/24 03:09:29;;;;;;;11.90;6.87;;;;;;;4.37;94.56;97700.89;1673080;85;21184;-65
2020/12/24 03:11:57;;;;;;;11.00;5.85;;;;;;;4.36;94.62;97706.95;1673130;85;21180;-66
2020/12/24 03:14:38;;;;;;;8.83;5.55;;;;;;;4.34;94.76;97703.69;1666301;86;21165;-66
2020/12/24 03:17:05;;;;;;;7.15;4.35;;;;;;;4.30;95.06;97708.23;1666104;86;21303;-65
2020/12/24 03:19:34;;;;;;;5.65;3.17;;;;;;;4.34;95.33;97709.29;1683056;85;21127;-66
2020/12/24 03:22:01;;;;;;;6.85;4.85;;;;;;;4.39;95.07;97708.05;1683232;85;21153;-64
2020/12/24 03:24:29;;;;;;;10.10;5.55;;;;;;;4.42;95.02;97702.67;1683090;84;21162;-66
2020/12/24 03:26:57;;;;;;;7.00;4.53;;;;;;;4.46;95.10;97705.38;1683007;84;21166;-66
2020/12/24 03:29:25;;;;;;;9.40;5.00;;;;;;;4.48;95.11;97703.96;1683177;84;21177;-64
2020/12/24 03:31:53;;;;;;;9.58;6.00;;;;;;;4.55;94.81;97702.12;1683049;84;21173;-66
2020/12/24 03:34:21;;;;;;;10.82;6.05;;;;;;;4.56;95.24;97700.38;1683049;85;21163;-66
2020/12/24 03:36:49;;;;;;;8.55;4.92;;;;;;;4.55;95.21;97693.12;1683105;85;21169;-63
2020/12/24 03:39:17;;;;;;;6.92;4.03;;;;;;;4.66;95.02;97698.33;1683106;85;21616;-66
2020/12/24 03:41:45;;;;;;;7.42;4.25;;;;;;;4.73;94.76;97694.83;1683156;85;21162;-66
2020/12/24 03:44:13;;;;;;;9.23;4.92;;;;;;;4.81;94.70;97703.27;1683145;85;21131;-67
2020/12/24 03:46:41;;;;;;;7.53;4.55;;;;;;;4.88;94.46;97696.27;1683166;85;21169;-66
2020/12/24 03:49:09;;;;;;;5.87;3.90;;;;;;;4.95;94.18;97698.73;1682977;85;21174;-65
2020/12/24 03:51:37;;;;;;;6.83;4.85;;;;;;;5.02;93.93;97696.05;1683105;85;21146;-66
2020/12/24 03:54:05;;;;;;;8.73;5.28;;;;;;;5.08;93.61;97697.34;1683084;85;21162;-66
2020/12/24 03:56:33;;;;;;;8.65;5.30;;;;;;;5.15;93.46;97701.92;1683023;85;21162;-66
2020/12/24 03:59:01;;;;;;;8.60;4.78;;;;;;;5.19;93.16;97701.22;1682949;85;21587;-66
2020/12/24 04:01:30;;;;;;;8.40;4.30;;;;;;;5.24;92.96;97707.67;1682937;85;22530;-66
2020/12/24 04:03:58;;;;;;;8.25;4.72;;;;;;;5.25;92.98;97704.14;1683096;85;21197;-65
2020/12/24 04:06:26;;;;;;;9.68;4.22;;;;;;;5.25;93.02;97706.72;1683076;85;21559;-66
2020/12/24 04:08:54;;;;;;;9.68;5.50;;;;;;;5.27;92.88;97709.19;1683090;84;21173;-66
2020/12/24 04:11:22;;;;;;;7.12;3.85;;;;;;;5.29;92.80;97706.05;1683225;85;21157;-66
2020/12/24 04:13:49;;;;;;;6.35;4.00;;;;;;;5.29;92.84;97715.52;1683029;85;21198;-66
2020/12/24 04:16:22;;;;;;;6.90;3.98;;;;;;;5.32;92.79;97714.81;1683162;85;21544;-66
2020/12/24 04:18:50;;;;;;;10.40;4.53;;;;;;;5.33;92.76;97717.72;1682933;84;21193;-66
2020/12/24 04:21:20;;;;;;;7.97;4.33;;;;;;;5.28;93.06;97720.31;1683232;84;21142;-66
2020/12/24 04:23:48;;;;;;;6.92;4.53;;;;;;;5.19;93.57;97716.20;1683005;84;21189;-64
2020/12/24 04:26:21;;;;;;;5.00;3.65;;;;;;;5.27;93.33;97724.63;1682944;84;21602;-64
2020/12/24 04:28:51;;;;;;;8.80;4.15;;;;;;;5.26;93.40;97725.09;1682884;84;21575;-66
2020/12/24 04:31:19;;;;;;;7.17;4.12;;;;;;;5.27;93.47;97727.20;1682918;84;21587;-64
2020/12/24 04:33:47;;;;;;;5.47;3.85;;;;;;;5.27;93.66;97732.36;1683024;84;21653;-67
2020/12/24 04:36:16;;;;;;;9.55;5.25;;;;;;;5.23;93.86;97734.81;1682795;85;21166;-64
2020/12/24 04:38:44;;;;;;;7.08;3.42;;;;;;;5.17;94.14;97738.68;1682771;85;21190;-64
2020/12/24 04:41:12;;;;;;;6.97;3.77;;;;;;;5.17;94.30;97732.70;1683124;84;21143;-64
2020/12/24 04:43:40;;;;;;;7.70;3.83;;;;;;;5.17;94.32;97740.43;1683255;85;21292;-63
2020/12/24 04:46:13;;;;;;;7.12;4.40;;;;;;;5.20;94.18;97741.02;1682796;85;21192;-64
2020/12/24 04:48:41;;;;;;;6.60;4.00;;;;;;;5.22;94.23;97748.61;1682908;85;21543;-65
2020/12/24 04:51:15;;;;;;;8.00;3.40;;;;;;;5.23;94.31;97748.97;1682353;83;21213;-65
2020/12/24 04:53:43;;;;;;;7.90;4.40;;;;;;;5.30;94.01;97752.72;1682889;85;21177;-65
2020/12/24 04:56:11;;;;;;;9.30;4.03;;;;;;;5.37;93.83;97746.66;1683088;84;21169;-65
2020/12/24 04:58:47;;;;;;;7.22;4.03;;;;;;;5.43;93.61;97749.58;1683014;85;21170;-64
2020/12/24 05:01:19;;;;;;;7.35;3.87;;;;;;;5.52;93.50;97754.52;1683077;84;21190;-65
2020/12/24 05:03:48;;;;;;;8.13;4.30;;;;;;;5.48;92.59;97747.95;1682885;84;21154;-65
2020/12/24 05:06:17;;;;;;;7.92;4.95;;;;;;;5.49;92.69;97750.86;1665516;85;21182;-65
2020/12/24 05:08:53;;;;;;;11.57;5.05;;;;;;;5.46;92.70;97753.20;1682981;85;21170;-64
2020/12/24 05:11:31;;;;;;;4.92;3.80;;;;;;;5.40;92.94;97749.82;1683151;85;21195;-64
2020/12/24 05:14:21;;;;;;;7.58;4.80;;;;;;;5.50;92.72;97748.18;1684131;83;21590;-64
2020/12/24 05:17:04;;;;;;;7.35;3.77;;;;;;;5.57;92.50;97749.81;1723028;83;21168;-66
2020/12/24 05:19:35;;;;;;;7.90;4.45;;;;;;;5.64;92.36;97744.56;1722901;83;21163;-67
2020/12/24 05:22:18;;;;;;;7.10;4.85;;;;;;;5.72;92.24;97747.34;1723255;83;21179;-67
2020/12/24 05:24:48;;;;;;;10.48;6.10;;;;;;;5.74;91.17;97750.18;1694138;84;21171;-66
2020/12/24 05:27:22;;;;;;;10.85;5.17;;;;;;;5.70;90.52;97742.33;1694199;84;21210;-66
2020/12/24 05:29:52;;;;;;;11.43;5.70;;;;;;;5.73;90.84;97754.97;1694301;83;21140;-65
2020/12/24 05:32:47;;;;;;;12.07;5.12;;;;;;;5.76;90.99;97753.91;1693967;85;21186;-65
2020/12/24 05:35:14;;;;;;;11.60;6.05;;;;;;;5.79;90.95;97753.70;1713710;84;21726;-66
2020/12/24 05:37:44;;;;;;;10.43;5.62;;;;;;;5.82;90.81;97746.19;1713664;84;21600;-66
2020/12/24 05:40:27;;;;;;;11.03;6.22;;;;;;;5.80;90.49;97747.58;1713288;84;21672;-65
2020/12/24 05:43:01;;;;;;;10.72;5.60;;;;;;;5.81;90.50;97739.39;1713721;84;21309;-66
2020/12/24 05:45:33;;;;;;;9.03;4.75;;;;;;;5.73;89.97;97740.80;1667618;85;21574;-66
2020/12/24 05:48:12;;;;;;;13.48;6.17;;;;;;;5.65;89.89;97731.55;1713754;84;21549;-66
2020/12/24 05:50:43;;;;;;;9.18;5.67;;;;;;;5.60;90.03;97728.99;1713661;83;21329;-64
2020/12/24 05:53:36;;;;;;;7.97;3.83;;;;;;;5.59;90.23;97744.91;1667927;86;21168;-66
2020/12/24 05:56:05;;;;;;;12.28;5.05;;;;;;;5.59;90.38;97740.23;1722807;83;21205;-65
2020/12/24 05:58:38;;;;;;;8.95;5.28;;;;;;;5.56;90.38;97739.17;1696917;83;21562;-65
2020/12/24 06:01:10;;;;;;;12.37;6.10;;;;;;;5.53;90.40;97746.66;1722731;83;21160;-64
2020/12/24 06:03:46;;;;;;;12.55;5.17;;;;;;;5.50;90.44;97748.18;1722786;82;21161;-66
2020/12/24 06:06:18;;;;;;;11.28;5.62;;;;;;;5.50;90.49;97743.49;1722460;83;21570;-67
2020/12/24 06:08:47;;;;;;;10.60;5.47;;;;;;;5.49;90.47;97737.52;1722871;82;21200;-66
2020/12/24 06:11:20;;;;;;;11.83;5.72;;;;;;;5.48;90.49;97730.75;1723116;82;21206;-65
2020/12/24 06:13:50;;;;;;;8.40;4.67;;;;;;;5.46;90.48;97734.36;1722909;83;21573;-65
2020/12/24 06:16:22;;;;;;;9.88;5.00;;;;;;;5.45;90.41;97734.00;1722862;83;21157;-66
2020/12/24 06:18:52;;;;;;;12.93;6.00;;;;;;;5.42;90.47;97731.20;1696060;83;21173;-65
2020/12/24 06:21:22;;;;;;;11.20;5.47;;;;;;;5.41;90.50;97727.47;1696521;83;21145;-66
2020/12/24 06:24:16;;;;;;;8.68;4.47;;;;;;;5.39;90.62;97736.59;1723151;83;21153;-68
2020/12/24 06:26:48;;;;;;;13.20;6.40;;;;;;;5.36;90.64;97743.27;1762288;80;21199;-66
2020/12/24 06:29:19;;;;;;;14.85;5.70;;;;;;;5.33;90.98;97736.23;1723404;82;21186;-66
2020/12/24 06:31:50;;;;;;;11.83;6.62;;;;;;;5.30;91.05;97735.98;1707563;83;21150;-66
2020/12/24 06:34:28;;;;;;;13.72;5.90;;;;;;;5.29;91.14;97740.80;1699425;83;21166;-66
2020/12/24 06:37:01;;;;;;;8.95;5.40;;;;;;;5.24;91.65;97744.18;1723624;82;21123;-66
2020/12/24 06:40:02;;;;;;;11.22;6.10;;;;;;;5.20;92.06;97739.73;1718037;83;21572;-66
2020/12/24 06:42:40;;;;;;;13.55;6.53;;;;;;;5.21;92.00;97738.77;1693991;83;21172;-66
2020/12/24 06:48:22;;;;;;;10.40;4.80;;;;;;;5.24;91.97;97741.14;1657369;85;21180;-65
2020/12/24 06:51:00;;;;;;;13.25;6.25;;;;;;;5.27;91.89;97737.51;1667464;86;21330;-65
2020/12/24 06:56:22;;;;;;;11.78;6.70;;;;;;;5.35;92.15;97741.62;1780318;79;22722;-67
2020/12/24 06:59:01;;;;;;;14.63;6.58;;;;;;;5.29;92.54;97743.38;1753962;81;21173;-65
2020/12/24 07:01:32;;;;;;;14.40;6.15;;;;;;;5.22;93.53;97733.98;1753803;82;21167;-66
2020/12/24 07:04:03;;;;;;;8.03;4.72;;;;;;;5.21;94.43;97733.62;1753737;82;21230;-65
2020/12/24 07:06:49;;;;;;;7.42;4.12;;;;;;;5.28;94.18;97730.14;1753715;81;21244;-67
2020/12/24 07:09:28;;;;;;;10.38;5.12;;;;;;;5.32;93.99;97732.02;1753888;82;21144;-67
2020/12/24 07:11:59;;;;;;;10.90;6.05;;;;;;;5.37;93.78;97728.64;1753915;82;21196;-66
2020/12/24 07:14:37;;;;;;;9.25;5.33;;;;;;;5.30;95.14;97728.26;1753594;82;21168;-66
2020/12/24 07:17:22;;;;;;;9.78;5.00;;;;;;;5.34;94.78;97733.53;1753905;80;21135;-64
2020/12/24 07:19:51;;;;;;;6.92;4.58;;;;;;;5.35;94.93;97730.49;1753860;81;21167;-64
2020/12/24 07:22:21;;;;;;;8.40;5.10;;;;;;;5.33;94.85;97732.38;1753701;80;21152;-67
2020/12/24 07:24:56;;;;;;;6.80;3.72;;;;;;;5.35;95.07;97726.62;1724952;82;21587;-65
2020/12/24 07:27:25;;;;;;;6.80;4.20;;;;;;;5.36;94.95;97717.52;1753583;82;21124;-65
2020/12/24 07:29:54;;;;;;;7.45;4.08;;;;;;;5.38;95.03;97723.81;1753647;82;21145;-65
2020/12/24 07:32:22;;;;;;;8.70;4.97;;;;;;;5.42;95.01;97720.07;1753838;82;21149;-65
2020/12/24 07:34:51;;;;;;;10.23;5.22;;;;;;;5.37;95.41;97717.05;1753625;82;21156;-66
2020/12/24 07:37:21;;;;;;;7.37;4.10;;;;;;;5.43;95.21;97721.26;1753827;82;21164;-65
2020/12/24 07:39:53;;;;;;;5.15;3.52;;;;;;;5.46;95.17;97720.19;1724363;82;21122;-66
2020/12/24 07:42:23;;;;;;;5.35;3.58;;;;;;;5.47;95.19;97717.98;1753628;82;21632;-66
2020/12/24 07:44:52;;;;;;;6.58;4.20;;;;;;;5.51;95.26;97730.97;1753761;82;21136;-65
2020/12/24 07:47:20;;;;;;;8.20;5.00;;;;;;;5.48;94.86;97724.78;1753873;80;21541;-66
2020/12/24 07:49:54;;;;;;;8.45;4.72;;;;;;;5.46;94.95;97721.48;1718890;79;21169;-66
2020/12/24 07:52:22;;;;;;;10.65;4.78;;;;;;;5.47;94.77;97712.83;1719727;83;21295;-66
2020/12/24 07:54:50;;;;;;;6.75;4.78;;;;;;;5.50;94.94;97706.97;1719463;83;21299;-66
2020/12/24 07:57:22;;;;;;;8.83;4.60;;;;;;;5.51;94.83;97697.48;1719373;83;21146;-66
2020/12/24 08:00:00;;;;;;;9.80;4.95;;;;;;;5.40;95.26;97701.36;1719344;83;21177;-66
2020/12/24 08:02:28;;;;;;;6.70;3.72;;;;;;;5.45;95.18;97702.62;1719366;83;21230;-66
2020/12/24 08:04:56;;;;;;;9.03;4.03;;;;;;;5.47;95.00;97702.06;1719415;83;21721;-65
2020/12/24 08:07:24;;;;;;;7.37;5.17;;;;;;;5.45;95.12;97699.23;1718820;83;21576;-66
2020/12/24 08:09:52;;;;;;;9.70;4.35;;;;;;;5.48;95.30;97695.98;1719152;83;21157;-65
2020/12/24 08:12:23;;;;;;;13.38;6.45;;;;;;;5.45;95.38;97688.47;1719031;83;21173;-66
2020/12/24 08:14:51;;;;;;;10.93;5.75;;;;;;;5.40;95.86;97685.91;1718808;83;21157;-66
2020/12/24 08:17:50;;;;;;;5.35;4.25;;;;;;;5.36;96.24;97689.19;1719103;83;21165;-66
2020/12/24 08:20:20;;;;;;;10.40;6.22;;;;;;;5.50;95.77;97691.98;1783407;80;21136;-66
2020/12/24 08:23:05;;;;;;;9.75;4.28;;;;;;;5.39;95.84;97702.29;1793204;80;21721;-66
2020/12/24 08:25:33;;;;;;;9.80;5.65;;;;;;;5.49;95.67;97697.59;1793180;80;21666;-66
2020/12/24 08:28:02;;;;;;;9.50;4.53;;;;;;;5.42;95.64;97678.41;1793520;80;21261;-66
2020/12/24 08:30:32;;;;;;;6.30;3.85;;;;;;;5.52;95.74;97687.55;1750682;82;21229;-66
2020/12/24 08:33:04;;;;;;;14.75;6.15;;;;;;;5.47;95.20;97690.47;1793712;80;21258;-66
2020/12/24 08:35:32;;;;;;;7.92;4.37;;;;;;;5.46;95.53;97694.44;1793594;80;21555;-67
2020/12/24 08:38:17;;;;;;;8.33;5.20;;;;;;;5.44;95.04;97696.33;1794185;80;21276;-66
2020/12/24 08:40:47;;;;;;;8.53;4.58;;;;;;;5.59;95.06;97692.57;1794650;80;21266;-70
2020/12/24 08:43:15;;;;;;;11.95;5.62;;;;;;;5.63;94.69;97701.23;1795229;80;21238;-69
2020/12/24 08:45:47;;;;;;;6.92;3.33;;;;;;;5.71;94.75;97693.73;1767392;80;21337;-66
2020/12/24 08:48:51;;;;;;;9.83;4.05;;;;;;;5.84;94.50;97706.47;1793184;80;21560;-66
2020/12/24 08:51:21;;;;;;;6.37;3.15;;;;;;;5.80;93.85;97707.64;1691790;83;21178;-65
2020/12/24 08:54:14;;;;;;;4.08;3.27;;;;;;;5.92;93.34;97713.63;1691570;83;21600;-66
2020/12/24 08:56:44;;;;;;;5.90;4.05;;;;;;;5.93;92.46;97714.81;1691925;85;21193;-66
2020/12/24 08:59:16;;;;;;;6.08;3.55;;;;;;;6.08;92.86;97724.38;1691637;85;21563;-65
2020/12/24 09:01:44;;;;;;;6.95;3.83;;;;;;;6.14;91.83;97720.88;1691504;85;21548;-65
2020/12/24 09:04:16;;;;;;;5.60;3.10;;;;;;;6.20;91.40;97711.35;1691520;85;21602;-65
2020/12/24 09:06:46;;;;;;;4.95;3.80;;;;;;;6.33;91.96;97703.94;1691852;85;21158;-65
2020/12/24 09:09:22;;;;;;;5.80;3.75;;;;;;;6.38;90.41;97696.16;1691770;85;21206;-65
2020/12/24 09:11:52;;;;;;;9.53;5.75;;;;;;;6.45;90.53;97695.22;1691716;85;21529;-66
2020/12/24 09:14:23;;;;;;;10.40;5.87;;;;;;;6.16;89.51;97685.46;1691589;85;21167;-64
2020/12/24 09:16:58;;;;;;;8.80;4.62;;;;;;;6.12;90.36;97671.64;1691851;85;21135;-66
2020/12/24 09:19:27;;;;;;;9.88;5.42;;;;;;;6.08;90.60;97659.47;1691781;85;21158;-67
2020/12/24 09:21:58;;;;;;;12.30;5.60;;;;;;;6.11;90.66;97661.80;1691725;85;21175;-65
2020/12/24 09:24:26;;;;;;;10.20;5.85;;;;;;;6.22;90.60;97664.83;1691569;85;21225;-66
2020/12/24 09:26:57;;;;;;;8.78;4.78;;;;;;;6.06;90.81;97651.52;1691749;85;21154;-66
2020/12/24 09:29:27;;;;;;;11.03;6.62;;;;;;;6.07;91.18;97648.80;1691645;85;21556;-66
2020/12/24 09:32:00;;;;;;;12.37;6.97;;;;;;;6.04;91.43;97648.23;1691800;85;21190;-65
2020/12/24 09:34:30;;;;;;;12.25;6.62;;;;;;;5.93;91.79;97640.07;1691492;85;21155;-66
2020/12/24 09:36:58;;;;;;;10.25;5.30;;;;;;;5.94;91.89;97633.16;1691748;83;21171;-64
2020/12/24 09:39:25;;;;;;;11.22;5.58;;;;;;;5.90;91.93;97630.48;1691600;85;21146;-66
2020/12/24 09:41:53;;;;;;;10.43;5.17;;;;;;;5.89;92.05;97628.37;1691617;85;21159;-64
2020/12/24 09:44:21;;;;;;;9.00;5.90;;;;;;;5.87;92.61;97626.39;1691682;83;21256;-67
2020/12/24 09:46:49;;;;;;;8.33;5.40;;;;;;;5.89;92.34;97630.95;1691636;85;21154;-66
2020/12/24 09:49:18;;;;;;;9.03;4.10;;;;;;;5.85;91.94;97617.92;1691546;85;21211;-66
2020/12/24 09:51:47;;;;;;;10.48;4.58;;;;;;;5.95;92.32;97617.55;1691687;85;21166;-66
2020/12/24 09:54:17;;;;;;;7.17;4.40;;;;;;;5.89;92.16;97611.62;1690120;85;21591;-66
2020/12/24 09:56:45;;;;;;;9.70;5.47;;;;;;;5.94;92.13;97604.34;1691888;85;21588;-67
2020/12/24 09:59:14;;;;;;;11.28;5.87;;;;;;;5.94;92.61;97599.66;1691569;85;21218;-66
2020/12/24 10:01:42;;;;;;;12.88;7.62;;;;;;;6.07;92.16;97604.19;1691523;85;21179;-66
2020/12/24 10:04:10;;;;;;;14.75;7.58;;;;;;;6.07;91.92;97598.53;1691805;85;21171;-67
2020/12/24 10:06:37;;;;;;;13.55;6.67;;;;;;;6.11;92.03;97599.92;1691720;85;21143;-66
2020/12/24 10:09:06;;;;;;;10.30;6.12;;;;;;;6.07;92.36;97595.95;1691910;83;21170;-66
2020/12/24 10:11:34;;;;;;;8.15;5.60;;;;;;;6.08;92.44;97597.60;1691877;85;21193;-66
2020/12/24 10:14:02;;;;;;;9.55;5.65;;;;;;;6.12;92.70;97593.02;1691635;83;21171;-66
2020/12/24 10:16:30;;;;;;;9.20;5.70;;;;;;;6.15;92.29;97592.76;1691691;85;21162;-66
2020/12/24 10:18:58;;;;;;;12.78;5.17;;;;;;;6.14;92.43;97591.14;1691779;83;21168;-66
2020/12/24 10:21:27;;;;;;;7.12;3.27;;;;;;;6.26;92.22;97579.02;1692016;85;21135;-66
2020/12/24 10:24:10;;;;;;;7.60;4.30;;;;;;;6.32;91.79;97581.08;1791016;80;21142;-66
2020/12/24 10:26:39;;;;;;;7.25;4.50;;;;;;;6.41;91.56;97581.62;1791619;80;21159;-66
2020/12/24 10:29:07;;;;;;;6.97;3.95;;;;;;;6.43;91.55;97574.56;1791885;80;21677;-66
2020/12/24 10:31:34;;;;;;;6.03;4.15;;;;;;;6.51;91.59;97573.47;1791794;80;21163;-66
2020/12/24 10:34:02;;;;;;;8.50;5.17;;;;;;;6.67;91.18;97578.52;1791684;80;21176;-65
2020/12/24 10:36:30;;;;;;;7.75;3.65;;;;;;;6.64;91.08;97563.30;1791918;80;21143;-66
2020/12/24 10:39:01;;;;;;;5.92;3.25;;;;;;;6.80;90.72;97565.89;1791813;80;21293;-66
2020/12/24 10:41:29;;;;;;;6.40;4.53;;;;;;;6.91;90.44;97570.49;1791720;80;21346;-66
2020/12/24 10:43:57;;;;;;;6.55;4.05;;;;;;;6.95;89.77;97561.55;1791760;80;21305;-66
2020/12/24 10:46:25;;;;;;;7.87;4.58;;;;;;;7.00;89.67;97554.20;1791739;80;21277;-66
2020/12/24 10:48:53;;;;;;;7.72;4.55;;;;;;;7.07;89.79;97543.73;1791942;80;21278;-66
2020/12/24 10:51:22;;;;;;;6.45;4.25;;;;;;;7.04;89.51;97538.02;1791852;80;21156;-65
2020/12/24 10:53:50;;;;;;;8.50;5.08;;;;;;;7.08;89.38;97529.05;1791680;80;21143;-66
2020/12/24 10:56:18;;;;;;;4.95;4.20;;;;;;;7.05;89.80;97524.95;1791659;80;21147;-66
2020/12/24 10:58:47;;;;;;;6.42;4.65;;;;;;;7.12;89.46;97526.05;1791741;80;21290;-65
2020/12/24 11:01:17;;;;;;;8.68;5.00;;;;;;;7.08;89.53;97514.86;1791780;80;21369;-66
2020/12/24 11:03:46;;;;;;;8.10;4.33;;;;;;;6.99;90.29;97512.58;1791867;80;21270;-66
2020/12/24 11:06:23;;;;;;;11.80;5.72;;;;;;;6.99;90.08;97500.14;1791630;80;21151;-66
2020/12/24 11:08:53;;;;;;;10.08;4.92;;;;;;;7.03;89.78;97502.34;1791674;80;21218;-65
2020/12/24 11:14:00;;;;;;;9.75;5.45;;;;;;;7.20;89.61;97484.58;1720167;83;21155;-65
2020/12/24 11:16:28;;;;;;;7.15;4.25;;;;;;;7.21;89.74;97484.89;1720307;83;21151;-65
2020/12/24 11:18:56;;;;;;;6.78;4.00;;;;;;;7.34;89.56;97481.59;1720398;83;21156;-65
2020/12/24 11:21:24;;;;;;;5.95;4.60;;;;;;;7.29;88.76;97476.01;1720322;83;21168;-67
2020/12/24 11:23:53;;;;;;;6.33;4.28;;;;;;;7.37;89.09;97470.52;1720510;83;21209;-66
2020/12/24 11:26:22;;;;;;;9.55;4.30;;;;;;;7.34;89.22;97459.64;1720286;83;21163;-66
2020/12/24 11:28:52;;;;;;;6.85;4.25;;;;;;;7.36;88.99;97452.56;1720449;83;21194;-66
2020/12/24 11:31:29;;;;;;;6.00;3.72;;;;;;;7.39;88.96;97441.48;1720224;83;21164;-64
2020/12/24 11:33:59;;;;;;;8.25;4.22;;;;;;;7.38;89.22;97430.83;1720217;83;21159;-64
2020/12/24 11:36:28;;;;;;;7.50;4.60;;;;;;;7.49;89.15;97429.88;1720203;83;21149;-69
2020/12/24 11:38:56;;;;;;;7.42;4.37;;;;;;;7.54;89.06;97417.37;1720224;83;21203;-66
2020/12/24 11:41:27;;;;;;;7.85;5.12;;;;;;;7.64;88.84;97415.58;1720304;83;21171;-65
2020/12/24 11:43:57;;;;;;;7.87;5.03;;;;;;;7.71;88.69;97416.66;1720399;83;21167;-66
2020/12/24 11:46:26;;;;;;;9.80;5.17;;;;;;;7.66;88.62;97416.27;1720479;83;21148;-66
2020/12/24 11:48:56;;;;;;;8.53;5.78;;;;;;;7.71;88.58;97415.83;1720301;83;21246;-64
2020/12/24 11:51:24;;;;;;;12.45;7.40;;;;;;;7.70;88.87;97403.41;1720455;83;21568;-66
2020/12/24 11:53:53;;;;;;;12.58;6.67;;;;;;;7.69;88.90;97408.71;1720627;83;21196;-66
2020/12/24 11:56:23;;;;;;;14.60;7.17;;;;;;;7.80;88.89;97390.46;1720200;83;21156;-66
2020/12/24 11:58:53;;;;;;;15.40;6.58;;;;;;;7.88;88.83;97391.40;1720334;83;21168;-67
2020/12/24 12:01:23;;;;;;;16.00;6.72;;;;;;;7.91;88.58;97383.36;1720407;83;21164;-64
2020/12/24 12:03:52;;;;;;;13.20;7.10;;;;;;;7.93;88.47;97386.63;1720455;83;21167;-65